LRBC/BCM METAR and TAF weather

Enter ICAO airport designator
Station Type Date Time Source
LRBC METAR 2020/11/27 03:00 UTC NOAA

LRBC 270300Z 18003KT 0350 R34/0375N FZFG VV001 M02/M02 Q1021


Station Type Date Time Source
LRBC Decoded METAR 2020/11/27 03:00 UTC NOAA

Bacau, Romania (LRBC) 46-35N 026-58E 190M
Nov 26, 2020 - 10:00 PM EST / 2020.11.27 0300 UTC
Wind: from the S (180 degrees) at 3 MPH (3 KT):0
Visibility: less than 1 mile:0
Sky conditions: obscured
Weather: freezing fog
Temperature: 28 F (-2 C)
Dew Point: 28 F (-2 C)
Relative Humidity: 100%
Pressure (altimeter): 30.15 in. Hg (1021 hPa)
ob: LRBC 270300Z 18003KT 0350 R34/0375N FZFG VV001 M02/M02 Q1021
cycle: 3

Station Type Date Time Source
LRBC TAF 2010/08/31 20:30 UTC NOAA

TAF LRBC 312030Z 3121/0203 CNL

Example: see airport list